sensor_id;sensor_type;location;lat;lon;timestamp;pressure;altitude;pressure_sealevel;temperature;humidity
59055;BME280;44845;51.444;7.460;2023-01-29T00:00:38;101099.44;;;-0.15;67.63
59055;BME280;44845;51.444;7.460;2023-01-29T00:03:03;101104.34;;;-0.19;67.98
59055;BME280;44845;51.444;7.460;2023-01-29T00:05:29;101095.19;;;-0.14;67.90
59055;BME280;44845;51.444;7.460;2023-01-29T00:07:55;101092.47;;;-0.17;68.25
59055;BME280;44845;51.444;7.460;2023-01-29T00:10:20;101080.28;;;-0.20;68.04
59055;BME280;44845;51.444;7.460;2023-01-29T00:12:46;101082.75;;;-0.21;67.89
59055;BME280;44845;51.444;7.460;2023-01-29T00:15:11;101084.28;;;-0.25;67.95
59055;BME280;44845;51.444;7.460;2023-01-29T00:17:37;101082.31;;;-0.29;67.90
59055;BME280;44845;51.444;7.460;2023-01-29T00:20:02;101070.41;;;-0.27;67.86
59055;BME280;44845;51.444;7.460;2023-01-29T00:22:29;101072.00;;;-0.29;67.92
59055;BME280;44845;51.444;7.460;2023-01-29T00:24:54;101072.72;;;-0.32;68.52
59055;BME280;44845;51.444;7.460;2023-01-29T00:27:20;101070.25;;;-0.30;68.48
59055;BME280;44845;51.444;7.460;2023-01-29T00:29:45;101067.84;;;-0.27;68.25
59055;BME280;44845;51.444;7.460;2023-01-29T00:32:31;101064.91;;;-0.33;68.57
59055;BME280;44845;51.444;7.460;2023-01-29T00:34:56;101072.00;;;-0.29;68.27
59055;BME280;44845;51.444;7.460;2023-01-29T00:37:21;101075.41;;;-0.30;68.65
59055;BME280;44845;51.444;7.460;2023-01-29T00:39:47;101074.13;;;-0.22;68.16
59055;BME280;44845;51.444;7.460;2023-01-29T00:42:12;101065.78;;;-0.18;68.10
59055;BME280;44845;51.444;7.460;2023-01-29T00:44:56;101066.50;;;-0.20;68.11
59055;BME280;44845;51.444;7.460;2023-01-29T00:47:22;101079.28;;;-0.22;67.90
59055;BME280;44845;51.444;7.460;2023-01-29T00:50:05;101066.84;;;-0.29;68.01
59055;BME280;44845;51.444;7.460;2023-01-29T00:52:31;101065.09;;;-0.30;67.89
59055;BME280;44845;51.444;7.460;2023-01-29T00:54:58;101069.09;;;-0.36;68.15
59055;BME280;44845;51.444;7.460;2023-01-29T00:57:26;101063.41;;;-0.30;67.84
59055;BME280;44845;51.444;7.460;2023-01-29T00:59:51;101068.31;;;-0.35;67.83
59055;BME280;44845;51.444;7.460;2023-01-29T01:02:17;101071.84;;;-0.32;67.70
59055;BME280;44845;51.444;7.460;2023-01-29T01:05:02;101080.19;;;-0.37;67.91
59055;BME280;44845;51.444;7.460;2023-01-29T01:07:28;101072.44;;;-0.37;67.95
59055;BME280;44845;51.444;7.460;2023-01-29T01:09:54;101077.53;;;-0.38;67.86
59055;BME280;44845;51.444;7.460;2023-01-29T01:12:38;101078.44;;;-0.38;67.77
59055;BME280;44845;51.444;7.460;2023-01-29T01:15:03;101088.09;;;-0.33;68.01
59055;BME280;44845;51.444;7.460;2023-01-29T01:17:29;101084.56;;;-0.36;67.64
59055;BME280;44845;51.444;7.460;2023-01-29T01:19:54;101081.78;;;-0.39;67.32
59055;BME280;44845;51.444;7.460;2023-01-29T01:22:19;101086.94;;;-0.39;67.52
59055;BME280;44845;51.444;7.460;2023-01-29T01:24:45;101081.66;;;-0.42;67.61
59055;BME280;44845;51.444;7.460;2023-01-29T01:27:11;101076.13;;;-0.48;68.04
59055;BME280;44845;51.444;7.460;2023-01-29T01:29:36;101075.22;;;-0.49;68.08
59055;BME280;44845;51.444;7.460;2023-01-29T01:32:02;101071.78;;;-0.49;68.37
59055;BME280;44845;51.444;7.460;2023-01-29T01:34:27;101067.59;;;-0.47;68.30
59055;BME280;44845;51.444;7.460;2023-01-29T01:36:53;101062.59;;;-0.44;67.85
59055;BME280;44845;51.444;7.460;2023-01-29T01:39:23;101038.28;;;-0.49;68.23
59055;BME280;44845;51.444;7.460;2023-01-29T01:41:49;101034.09;;;-0.47;68.05
59055;BME280;44845;51.444;7.460;2023-01-29T01:44:52;101027.06;;;-0.50;68.37
59055;BME280;44845;51.444;7.460;2023-01-29T01:47:37;101022.16;;;-0.45;68.18
59055;BME280;44845;51.444;7.460;2023-01-29T01:50:09;101029.91;;;-0.45;68.17
59055;BME280;44845;51.444;7.460;2023-01-29T01:52:40;101029.25;;;-0.41;67.95
59055;BME280;44845;51.444;7.460;2023-01-29T01:55:08;101027.66;;;-0.39;67.68
59055;BME280;44845;51.444;7.460;2023-01-29T01:57:34;101031.06;;;-0.40;68.31
59055;BME280;44845;51.444;7.460;2023-01-29T02:00:10;101026.22;;;-0.33;67.66
59055;BME280;44845;51.444;7.460;2023-01-29T02:02:38;101041.69;;;-0.33;67.35
59055;BME280;44845;51.444;7.460;2023-01-29T02:05:25;101045.16;;;-0.33;67.13
59055;BME280;44845;51.444;7.460;2023-01-29T02:08:10;101033.72;;;-0.38;67.44
59055;BME280;44845;51.444;7.460;2023-01-29T02:10:54;101046.41;;;-0.41;67.72
59055;BME280;44845;51.444;7.460;2023-01-29T02:13:20;101043.94;;;-0.40;67.25
59055;BME280;44845;51.444;7.460;2023-01-29T02:15:45;101042.16;;;-0.41;67.80
59055;BME280;44845;51.444;7.460;2023-01-29T02:18:14;101035.25;;;-0.42;67.94
59055;BME280;44845;51.444;7.460;2023-01-29T02:20:47;101037.00;;;-0.41;67.62
59055;BME280;44845;51.444;7.460;2023-01-29T02:23:38;101046.34;;;-0.43;68.02
59055;BME280;44845;51.444;7.460;2023-01-29T02:29:22;101045.38;;;-0.45;67.98
59055;BME280;44845;51.444;7.460;2023-01-29T02:32:21;101055.50;;;-0.48;67.73
59055;BME280;44845;51.444;7.460;2023-01-29T02:35:13;101064.38;;;-0.43;67.83
59055;BME280;44845;51.444;7.460;2023-01-29T02:40:54;101055.75;;;-0.43;67.76
59055;BME280;44845;51.444;7.460;2023-01-29T02:46:02;101064.56;;;-0.40;67.38
59055;BME280;44845;51.444;7.460;2023-01-29T02:51:56;101065.63;;;-0.51;67.27
59055;BME280;44845;51.444;7.460;2023-01-29T02:54:31;101074.50;;;-0.46;67.18
59055;BME280;44845;51.444;7.460;2023-01-29T02:57:04;101065.16;;;-0.44;67.64
59055;BME280;44845;51.444;7.460;2023-01-29T02:59:38;101067.75;;;-0.44;67.11
59055;BME280;44845;51.444;7.460;2023-01-29T03:02:09;101062.59;;;-0.44;67.14
59055;BME280;44845;51.444;7.460;2023-01-29T03:04:42;101059.03;;;-0.46;67.49
59055;BME280;44845;51.444;7.460;2023-01-29T03:07:15;101066.78;;;-0.46;67.48
59055;BME280;44845;51.444;7.460;2023-01-29T03:10:05;101065.03;;;-0.47;67.20
59055;BME280;44845;51.444;7.460;2023-01-29T03:12:37;101066.78;;;-0.46;67.48
59055;BME280;44845;51.444;7.460;2023-01-29T03:15:20;101070.25;;;-0.46;67.57
59055;BME280;44845;51.444;7.460;2023-01-29T03:18:21;101061.47;;;-0.49;67.75
59055;BME280;44845;51.444;7.460;2023-01-29T03:20:54;101059.03;;;-0.46;67.98
59055;BME280;44845;51.444;7.460;2023-01-29T03:23:31;101064.19;;;-0.46;67.70
59055;BME280;44845;51.444;7.460;2023-01-29T03:26:20;101057.28;;;-0.47;67.75
59055;BME280;44845;51.444;7.460;2023-01-29T03:29:06;101047.31;;;-0.41;67.70
59055;BME280;44845;51.444;7.460;2023-01-29T03:31:54;101048.22;;;-0.40;67.84
59055;BME280;44845;51.444;7.460;2023-01-29T03:34:40;101042.34;;;-0.38;67.64
59055;BME280;44845;51.444;7.460;2023-01-29T03:37:11;101051.69;;;-0.40;67.93
59055;BME280;44845;51.444;7.460;2023-01-29T03:39:39;101059.94;;;-0.30;67.93
59055;BME280;44845;51.444;7.460;2023-01-29T03:42:25;101052.97;;;-0.31;67.63
59055;BME280;44845;51.444;7.460;2023-01-29T03:45:05;101052.38;;;-0.27;67.86
59055;BME280;44845;51.444;7.460;2023-01-29T03:47:48;101052.19;;;-0.30;67.70
59055;BME280;44845;51.444;7.460;2023-01-29T03:50:39;101041.41;;;-0.23;67.47
59055;BME280;44845;51.444;7.460;2023-01-29T03:56:08;101043.28;;;-0.20;67.58
59055;BME280;44845;51.444;7.460;2023-01-29T03:58:45;101031.28;;;-0.20;67.53
59055;BME280;44845;51.444;7.460;2023-01-29T04:01:17;101030.38;;;-0.20;67.07
59055;BME280;44845;51.444;7.460;2023-01-29T04:03:49;101022.03;;;-0.31;67.61
59055;BME280;44845;51.444;7.460;2023-01-29T04:06:21;101018.84;;;-0.27;67.52
59055;BME280;44845;51.444;7.460;2023-01-29T04:11:26;101024.16;;;-0.24;67.70
59055;BME280;44845;51.444;7.460;2023-01-29T04:13:53;101014.72;;;-0.24;67.45
59055;BME280;44845;51.444;7.460;2023-01-29T04:16:24;101015.63;;;-0.23;67.19
59055;BME280;44845;51.444;7.460;2023-01-29T04:18:52;101009.19;;;-0.15;66.95
59055;BME280;44845;51.444;7.460;2023-01-29T04:21:19;101013.84;;;-0.24;67.36
59055;BME280;44845;51.444;7.460;2023-01-29T04:23:44;101011.63;;;-0.18;67.50
59055;BME280;44845;51.444;7.460;2023-01-29T04:34:26;100994.72;;;-0.13;67.08
59055;BME280;44845;51.444;7.460;2023-01-29T04:37:04;101003.66;;;-0.06;66.73
59055;BME280;44845;51.444;7.460;2023-01-29T04:42:28;100998.16;;;-0.12;67.03
59055;BME280;44845;51.444;7.460;2023-01-29T04:44:59;100984.53;;;-0.09;67.18
59055;BME280;44845;51.444;7.460;2023-01-29T04:47:34;100980.34;;;-0.07;67.38
59055;BME280;44845;51.444;7.460;2023-01-29T04:55:31;100984.16;;;-0.01;67.00
59055;BME280;44845;51.444;7.460;2023-01-29T04:58:03;100988.34;;;-0.03;67.17
59055;BME280;44845;51.444;7.460;2023-01-29T05:00:33;100975.84;;;0.05;67.09
59055;BME280;44845;51.444;7.460;2023-01-29T05:03:00;100978.53;;;0.07;67.34
59055;BME280;44845;51.444;7.460;2023-01-29T05:05:27;100974.34;;;0.09;67.58
59055;BME280;44845;51.444;7.460;2023-01-29T05:07:54;100977.88;;;0.11;67.43
59055;BME280;44845;51.444;7.460;2023-01-29T05:10:21;100979.72;;;0.14;67.31
59055;BME280;44845;51.444;7.460;2023-01-29T05:12:56;100969.25;;;0.10;67.17
59055;BME280;44845;51.444;7.460;2023-01-29T05:15:28;100956.59;;;0.15;67.22
59055;BME280;44845;51.444;7.460;2023-01-29T05:17:54;100948.78;;;0.14;67.53
59055;BME280;44845;51.444;7.460;2023-01-29T05:20:29;100948.94;;;0.17;67.38
59055;BME280;44845;51.444;7.460;2023-01-29T05:22:55;100942.00;;;0.16;67.13
59055;BME280;44845;51.444;7.460;2023-01-29T05:25:24;100945.72;;;0.21;67.52
59055;BME280;44845;51.444;7.460;2023-01-29T05:27:51;100937.97;;;0.21;67.44
59055;BME280;44845;51.444;7.460;2023-01-29T05:30:33;100935.38;;;0.21;67.14
59055;BME280;44845;51.444;7.460;2023-01-29T05:32:59;100941.56;;;0.25;67.24
59055;BME280;44845;51.444;7.460;2023-01-29T05:35:25;100940.84;;;0.27;66.84
59055;BME280;44845;51.444;7.460;2023-01-29T05:37:56;100947.63;;;0.25;66.85
59055;BME280;44845;51.444;7.460;2023-01-29T05:40:23;100940.00;;;0.27;67.05
59055;BME280;44845;51.444;7.460;2023-01-29T05:42:49;100940.53;;;0.21;67.03
59055;BME280;44845;51.444;7.460;2023-01-29T05:45:15;100947.78;;;0.28;67.38
59055;BME280;44845;51.444;7.460;2023-01-29T05:47:41;100943.38;;;0.26;67.17
59055;BME280;44845;51.444;7.460;2023-01-29T05:50:07;100948.69;;;0.29;66.88
59055;BME280;44845;51.444;7.460;2023-01-29T05:52:33;100943.44;;;0.27;66.99
59055;BME280;44845;51.444;7.460;2023-01-29T05:54:58;100934.09;;;0.29;67.02
59055;BME280;44845;51.444;7.460;2023-01-29T05:57:23;100949.59;;;0.29;66.96
59055;BME280;44845;51.444;7.460;2023-01-29T05:59:49;100955.47;;;0.27;66.78
59055;BME280;44845;51.444;7.460;2023-01-29T06:02:14;100962.56;;;0.31;66.87
59055;BME280;44845;51.444;7.460;2023-01-29T06:04:39;100976.19;;;0.28;66.96
59055;BME280;44845;51.444;7.460;2023-01-29T06:07:05;100975.28;;;0.28;66.71
59055;BME280;44845;51.444;7.460;2023-01-29T06:09:30;100975.41;;;0.29;66.75
59055;BME280;44845;51.444;7.460;2023-01-29T06:11:55;100980.69;;;0.32;66.92
59055;BME280;44845;51.444;7.460;2023-01-29T06:14:21;100985.72;;;0.29;66.99
59055;BME280;44845;51.444;7.460;2023-01-29T06:16:46;100994.19;;;0.27;67.08
59055;BME280;44845;51.444;7.460;2023-01-29T06:19:11;100988.38;;;0.31;66.95
59055;BME280;44845;51.444;7.460;2023-01-29T06:21:37;100990.94;;;0.31;67.31
59055;BME280;44845;51.444;7.460;2023-01-29T06:24:02;100997.25;;;0.36;67.29
59055;BME280;44845;51.444;7.460;2023-01-29T06:26:28;101004.88;;;0.35;67.26
59055;BME280;44845;51.444;7.460;2023-01-29T06:28:53;100992.97;;;0.37;67.32
59055;BME280;44845;51.444;7.460;2023-01-29T06:31:18;100994.72;;;0.38;67.62
59055;BME280;44845;51.444;7.460;2023-01-29T06:33:44;100994.72;;;0.38;67.12
59055;BME280;44845;51.444;7.460;2023-01-29T06:36:09;100995.63;;;0.38;67.27
59055;BME280;44845;51.444;7.460;2023-01-29T06:38:35;100990.69;;;0.43;67.66
59055;BME280;44845;51.444;7.460;2023-01-29T06:41:08;100982.78;;;0.40;67.48
59055;BME280;44845;51.444;7.460;2023-01-29T06:43:33;100970.13;;;0.44;67.59
59055;BME280;44845;51.444;7.460;2023-01-29T06:45:59;100976.16;;;0.45;67.39
59055;BME280;44845;51.444;7.460;2023-01-29T06:48:24;100981.94;;;0.39;67.05
59055;BME280;44845;51.444;7.460;2023-01-29T06:50:50;100991.59;;;0.43;67.28
59055;BME280;44845;51.444;7.460;2023-01-29T06:53:16;100995.69;;;0.40;67.71
59055;BME280;44845;51.444;7.460;2023-01-29T06:55:42;100985.72;;;0.46;67.42
59055;BME280;44845;51.444;7.460;2023-01-29T06:58:10;100992.06;;;0.53;67.47
59055;BME280;44845;51.444;7.460;2023-01-29T07:00:35;100989.31;;;0.50;67.51
59055;BME280;44845;51.444;7.460;2023-01-29T07:03:02;100995.38;;;0.50;67.61
59055;BME280;44845;51.444;7.460;2023-01-29T07:05:27;100998.91;;;0.52;67.46
59055;BME280;44845;51.444;7.460;2023-01-29T07:07:53;100990.22;;;0.50;67.95
59055;BME280;44845;51.444;7.460;2023-01-29T07:10:18;100987.78;;;0.53;67.67
59055;BME280;44845;51.444;7.460;2023-01-29T07:12:44;100991.16;;;0.52;67.40
59055;BME280;44845;51.444;7.460;2023-01-29T07:15:09;100995.72;;;0.57;66.95
59055;BME280;44845;51.444;7.460;2023-01-29T07:17:37;101000.88;;;0.57;67.40
59055;BME280;44845;51.444;7.460;2023-01-29T07:20:02;100984.50;;;0.56;67.47
59055;BME280;44845;51.444;7.460;2023-01-29T07:22:27;100987.13;;;0.58;67.72
59055;BME280;44845;51.444;7.460;2023-01-29T07:24:53;100996.56;;;0.57;67.53
59055;BME280;44845;51.444;7.460;2023-01-29T07:27:18;101001.19;;;0.63;67.55
59055;BME280;44845;51.444;7.460;2023-01-29T07:29:43;100999.38;;;0.62;67.29
59055;BME280;44845;51.444;7.460;2023-01-29T07:32:09;100992.63;;;0.64;67.66
59055;BME280;44845;51.444;7.460;2023-01-29T07:34:35;100982.31;;;0.64;67.25
59055;BME280;44845;51.444;7.460;2023-01-29T07:37:00;100978.09;;;0.66;67.29
59055;BME280;44845;51.444;7.460;2023-01-29T07:39:25;100968.72;;;0.68;66.75
59055;BME280;44845;51.444;7.460;2023-01-29T07:41:51;100967.91;;;0.69;66.72
59055;BME280;44845;51.444;7.460;2023-01-29T07:44:16;100976.53;;;0.70;67.12
59055;BME280;44845;51.444;7.460;2023-01-29T07:46:42;100981.72;;;0.70;67.03
59055;BME280;44845;51.444;7.460;2023-01-29T07:49:07;100966.94;;;0.67;67.20
59055;BME280;44845;51.444;7.460;2023-01-29T07:51:32;100974.91;;;0.72;66.73
59055;BME280;44845;51.444;7.460;2023-01-29T07:53:58;100977.59;;;0.73;66.63
59055;BME280;44845;51.444;7.460;2023-01-29T07:56:23;100963.88;;;0.74;67.02
59055;BME280;44845;51.444;7.460;2023-01-29T07:58:48;100975.66;;;0.69;66.60
59055;BME280;44845;51.444;7.460;2023-01-29T08:01:15;100965.81;;;0.78;66.56
59055;BME280;44845;51.444;7.460;2023-01-29T08:03:40;100955.31;;;0.75;67.01
59055;BME280;44845;51.444;7.460;2023-01-29T08:06:06;100955.47;;;0.78;66.46
59055;BME280;44845;51.444;7.460;2023-01-29T08:08:31;100961.50;;;0.79;66.46
59055;BME280;44845;51.444;7.460;2023-01-29T08:11:00;100958.06;;;0.78;66.94
59055;BME280;44845;51.444;7.460;2023-01-29T08:13:25;100956.66;;;0.85;66.98
59055;BME280;44845;51.444;7.460;2023-01-29T08:15:51;100956.81;;;0.88;67.03
59055;BME280;44845;51.444;7.460;2023-01-29T08:18:16;100956.91;;;0.90;66.92
59055;BME280;44845;51.444;7.460;2023-01-29T08:20:42;100947.34;;;0.89;66.88
59055;BME280;44845;51.444;7.460;2023-01-29T08:23:14;100942.19;;;0.89;66.85
59055;BME280;44845;51.444;7.460;2023-01-29T08:25:40;100942.69;;;0.82;66.63
59055;BME280;44845;51.444;7.460;2023-01-29T08:28:06;100944.66;;;0.86;66.92
59055;BME280;44845;51.444;7.460;2023-01-29T08:30:32;100940.28;;;0.85;66.84
59055;BME280;44845;51.444;7.460;2023-01-29T08:32:58;100951.41;;;0.84;66.76
59055;BME280;44845;51.444;7.460;2023-01-29T08:35:25;100954.31;;;0.90;66.53
59055;BME280;44845;51.444;7.460;2023-01-29T08:37:55;100950.16;;;0.94;66.21
59055;BME280;44845;51.444;7.460;2023-01-29T08:40:22;100955.56;;;0.98;66.18
59055;BME280;44845;51.444;7.460;2023-01-29T08:42:47;100957.13;;;0.95;66.69
59055;BME280;44845;51.444;7.460;2023-01-29T08:45:12;100953.97;;;1.00;66.27
59055;BME280;44845;51.444;7.460;2023-01-29T08:47:44;100936.00;;;1.04;66.51
59055;BME280;44845;51.444;7.460;2023-01-29T08:50:10;100930.72;;;1.00;66.63
59055;BME280;44845;51.444;7.460;2023-01-29T08:52:35;100939.25;;;0.99;66.69
59055;BME280;44845;51.444;7.460;2023-01-29T08:55:00;100926.41;;;1.01;66.53
59055;BME280;44845;51.444;7.460;2023-01-29T08:57:26;100916.16;;;1.03;66.16
59055;BME280;44845;51.444;7.460;2023-01-29T08:59:51;100909.31;;;1.03;66.54
59055;BME280;44845;51.444;7.460;2023-01-29T09:02:16;100910.84;;;0.99;66.59
59055;BME280;44845;51.444;7.460;2023-01-29T09:04:42;100911.22;;;1.07;66.92
59055;BME280;44845;51.444;7.460;2023-01-29T09:07:07;100908.06;;;1.13;66.69
59055;BME280;44845;51.444;7.460;2023-01-29T09:09:32;100902.94;;;1.15;66.56
59055;BME280;44845;51.444;7.460;2023-01-29T09:11:58;100914.59;;;1.25;66.16
59055;BME280;44845;51.444;7.460;2023-01-29T09:14:23;100909.44;;;1.25;66.38
59055;BME280;44845;51.444;7.460;2023-01-29T09:16:48;100909.59;;;1.28;66.66
59055;BME280;44845;51.444;7.460;2023-01-29T09:19:14;100907.22;;;1.32;66.06
59055;BME280;44845;51.444;7.460;2023-01-29T09:21:39;100912.41;;;1.32;66.29
59055;BME280;44845;51.444;7.460;2023-01-29T09:24:05;100899.41;;;2.93;88.19
59055;BME280;44845;51.444;7.460;2023-01-29T09:26:30;100896.69;;;4.05;81.09
59055;BME280;44845;51.444;7.460;2023-01-29T09:28:55;100897.50;;;4.81;62.11
59055;BME280;44845;51.444;7.460;2023-01-29T09:31:21;100896.09;;;4.91;56.07
59055;BME280;44845;51.444;7.460;2023-01-29T09:33:46;100889.97;;;4.36;56.55
59055;BME280;44845;51.444;7.460;2023-01-29T09:36:11;100894.72;;;3.75;58.64
59055;BME280;44845;51.444;7.460;2023-01-29T09:38:37;100888.72;;;3.30;59.96
59055;BME280;44845;51.444;7.460;2023-01-29T09:41:13;100891.16;;;3.02;60.77
59055;BME280;44845;51.444;7.460;2023-01-29T09:43:59;100888.16;;;2.71;62.28
59055;BME280;44845;51.444;7.460;2023-01-29T09:46:37;100887.41;;;2.52;63.00
59055;BME280;44845;51.444;7.460;2023-01-29T09:49:08;100890.56;;;2.45;63.60
59055;BME280;44845;51.444;7.460;2023-01-29T09:51:48;100885.13;;;2.39;63.70
59055;BME280;44845;51.444;7.460;2023-01-29T09:54:28;100881.34;;;2.30;63.29
59055;BME280;44845;51.444;7.460;2023-01-29T09:56:56;100889.78;;;2.26;64.09
59055;BME280;44845;51.444;7.460;2023-01-29T09:59:31;100884.28;;;2.18;64.03
59055;BME280;44845;51.444;7.460;2023-01-29T10:02:10;100879.88;;;1.96;64.11
59055;BME280;44845;51.444;7.460;2023-01-29T10:10:29;100886.94;;;2.00;64.53
59055;BME280;44845;51.444;7.460;2023-01-29T10:13:20;100892.47;;;1.88;64.46
59055;BME280;44845;51.444;7.460;2023-01-29T10:16:07;100889.13;;;1.90;64.87
59055;BME280;44845;51.444;7.460;2023-01-29T10:18:45;100890.97;;;1.93;64.74
59055;BME280;44845;51.444;7.460;2023-01-29T10:26:42;100879.72;;;1.93;65.03
59055;BME280;44845;51.444;7.460;2023-01-29T10:29:13;100890.47;;;2.02;64.79
59055;BME280;44845;51.444;7.460;2023-01-29T10:31:40;100882.50;;;1.97;64.33
59055;BME280;44845;51.444;7.460;2023-01-29T10:34:31;100878.38;;;2.01;63.90
59055;BME280;44845;51.444;7.460;2023-01-29T10:37:00;100886.25;;;2.04;64.79
59055;BME280;44845;51.444;7.460;2023-01-29T10:39:35;100881.31;;;2.09;64.21
59055;BME280;44845;51.444;7.460;2023-01-29T10:42:18;100871.81;;;2.09;64.57
59055;BME280;44845;51.444;7.460;2023-01-29T10:50:54;100861.75;;;2.16;64.08
59055;BME280;44845;51.444;7.460;2023-01-29T10:56:58;100844.69;;;2.21;64.11
59055;BME280;44845;51.444;7.460;2023-01-29T11:02:15;100834.34;;;2.21;64.30
59055;BME280;44845;51.444;7.460;2023-01-29T11:04:42;100828.91;;;2.14;64.07
59055;BME280;44845;51.444;7.460;2023-01-29T11:07:07;100826.88;;;2.07;64.16
59055;BME280;44845;51.444;7.460;2023-01-29T11:09:38;100820.66;;;2.23;63.67
59055;BME280;44845;51.444;7.460;2023-01-29T11:12:15;100813.06;;;2.28;64.17
59055;BME280;44845;51.444;7.460;2023-01-29T11:14:48;100817.75;;;2.37;64.02
59055;BME280;44845;51.444;7.460;2023-01-29T11:17:22;100821.97;;;2.35;63.76
59055;BME280;44845;51.444;7.460;2023-01-29T11:19:49;100818.69;;;2.39;63.92
59055;BME280;44845;51.444;7.460;2023-01-29T11:22:23;100818.78;;;2.41;64.04
59055;BME280;44845;51.444;7.460;2023-01-29T11:27:53;100820.84;;;2.50;63.77
59055;BME280;44845;51.444;7.460;2023-01-29T11:30:37;100812.69;;;2.40;63.80
59055;BME280;44845;51.444;7.460;2023-01-29T11:33:18;100817.94;;;2.42;64.58
59055;BME280;44845;51.444;7.460;2023-01-29T11:35:45;100813.63;;;2.42;64.07
59055;BME280;44845;51.444;7.460;2023-01-29T11:38:28;100804.38;;;2.26;64.13
59055;BME280;44845;51.444;7.460;2023-01-29T11:41:13;100799.66;;;2.39;64.01
59055;BME280;44845;51.444;7.460;2023-01-29T11:43:42;100795.47;;;2.41;64.38
59055;BME280;44845;51.444;7.460;2023-01-29T11:46:12;100793.81;;;2.43;64.20
59055;BME280;44845;51.444;7.460;2023-01-29T11:51:05;100781.94;;;2.48;63.89
59055;BME280;44845;51.444;7.460;2023-01-29T11:53:35;100772.53;;;2.50;64.07
59055;BME280;44845;51.444;7.460;2023-01-29T11:56:17;100768.28;;;2.52;64.09
59055;BME280;44845;51.444;7.460;2023-01-29T11:58:44;100764.84;;;2.53;64.28
59055;BME280;44845;51.444;7.460;2023-01-29T12:01:10;100755.22;;;2.49;64.23
59055;BME280;44845;51.444;7.460;2023-01-29T12:03:42;100743.16;;;2.50;64.16
59055;BME280;44845;51.444;7.460;2023-01-29T12:06:21;100739.53;;;2.46;64.24
59055;BME280;44845;51.444;7.460;2023-01-29T12:08:56;100744.13;;;2.53;63.83
59055;BME280;44845;51.444;7.460;2023-01-29T12:11:33;100738.78;;;2.48;63.86
59055;BME280;44845;51.444;7.460;2023-01-29T12:14:01;100733.56;;;2.47;64.31
59055;BME280;44845;51.444;7.460;2023-01-29T12:16:37;100725.91;;;2.50;63.99
59055;BME280;44845;51.444;7.460;2023-01-29T12:19:16;100718.19;;;2.52;64.23
59055;BME280;44845;51.444;7.460;2023-01-29T12:21:54;100717.44;;;2.54;64.15
59055;BME280;44845;51.444;7.460;2023-01-29T12:27:14;100709.78;;;2.57;64.14
59055;BME280;44845;51.444;7.460;2023-01-29T12:29:47;100690.13;;;2.63;63.96
59055;BME280;44845;51.444;7.460;2023-01-29T12:32:38;100679.66;;;2.59;64.04
59055;BME280;44845;51.444;7.460;2023-01-29T12:35:11;100672.75;;;2.60;64.41
59055;BME280;44845;51.444;7.460;2023-01-29T12:40:24;100653.78;;;2.61;64.14
59055;BME280;44845;51.444;7.460;2023-01-29T12:42:56;100649.50;;;2.62;64.15
59055;BME280;44845;51.444;7.460;2023-01-29T12:45:27;100649.63;;;2.65;64.01
59055;BME280;44845;51.444;7.460;2023-01-29T12:48:00;100641.78;;;2.63;63.99
59055;BME280;44845;51.444;7.460;2023-01-29T12:50:28;100635.06;;;2.68;63.97
59055;BME280;44845;51.444;7.460;2023-01-29T12:53:03;100632.66;;;2.73;63.63
59055;BME280;44845;51.444;7.460;2023-01-29T12:55:44;100628.06;;;2.66;63.67
59055;BME280;44845;51.444;7.460;2023-01-29T12:58:15;100629.84;;;2.67;63.58
59055;BME280;44845;51.444;7.460;2023-01-29T13:00:45;100621.34;;;2.71;64.30
59055;BME280;44845;51.444;7.460;2023-01-29T13:03:23;100621.81;;;2.61;63.85
59055;BME280;44845;51.444;7.460;2023-01-29T13:05:55;100613.38;;;2.65;63.67
59055;BME280;44845;51.444;7.460;2023-01-29T13:11:22;100629.25;;;2.74;63.54
59055;BME280;44845;51.444;7.460;2023-01-29T13:14:00;100620.41;;;2.69;63.26
59055;BME280;44845;51.444;7.460;2023-01-29T13:16:34;100621.00;;;2.62;63.88
59055;BME280;44845;51.444;7.460;2023-01-29T13:19:04;100615.72;;;2.58;63.83
59055;BME280;44845;51.444;7.460;2023-01-29T13:21:36;100611.25;;;2.54;64.47
59055;BME280;44845;51.444;7.460;2023-01-29T13:24:15;100602.06;;;2.63;64.48
59055;BME280;44845;51.444;7.460;2023-01-29T13:26:46;100603.94;;;2.67;64.16
59055;BME280;44845;51.444;7.460;2023-01-29T13:29:23;100602.22;;;2.67;64.07
59055;BME280;44845;51.444;7.460;2023-01-29T13:31:54;100604.06;;;2.70;63.96
59055;BME280;44845;51.444;7.460;2023-01-29T13:34:26;100597.09;;;2.69;64.01
59055;BME280;44845;51.444;7.460;2023-01-29T13:36:58;100608.41;;;2.71;64.06
59055;BME280;44845;51.444;7.460;2023-01-29T13:39:28;100603.81;;;2.64;64.15
59055;BME280;44845;51.444;7.460;2023-01-29T13:41:55;100607.34;;;2.66;63.92
59055;BME280;44845;51.444;7.460;2023-01-29T13:44:25;100603.13;;;2.68;64.29
59055;BME280;44845;51.444;7.460;2023-01-29T13:47:00;100605.81;;;2.71;64.29
59055;BME280;44845;51.444;7.460;2023-01-29T13:49:28;100606.41;;;2.64;64.07
59055;BME280;44845;51.444;7.460;2023-01-29T13:51:56;100607.63;;;2.74;63.81
59055;BME280;44845;51.444;7.460;2023-01-29T13:54:24;100617.00;;;2.70;64.34
59055;BME280;44845;51.444;7.460;2023-01-29T13:56:55;100615.34;;;2.72;64.28
59055;BME280;44845;51.444;7.460;2023-01-29T13:59:52;100615.47;;;2.75;64.22
59055;BME280;44845;51.444;7.460;2023-01-29T14:02:23;100620.66;;;2.75;64.61
59055;BME280;44845;51.444;7.460;2023-01-29T14:04:49;100618.75;;;2.71;64.38
59055;BME280;44845;51.444;7.460;2023-01-29T14:07:52;100614.41;;;2.70;64.78
59055;BME280;44845;51.444;7.460;2023-01-29T14:10:20;100610.97;;;2.71;64.38
59055;BME280;44845;51.444;7.460;2023-01-29T14:12:47;100612.81;;;2.74;64.51
59055;BME280;44845;51.444;7.460;2023-01-29T14:15:20;100610.09;;;2.70;64.68
59055;BME280;44845;51.444;7.460;2023-01-29T14:20:33;100605.00;;;2.72;65.05
59055;BME280;44845;51.444;7.460;2023-01-29T14:22:59;100599.69;;;2.69;64.96
59055;BME280;44845;51.444;7.460;2023-01-29T14:25:31;100596.28;;;2.70;64.90
59055;BME280;44845;51.444;7.460;2023-01-29T14:27:59;100594.38;;;2.66;64.63
59055;BME280;44845;51.444;7.460;2023-01-29T14:30:29;100596.97;;;2.66;65.05